Time;durP1;ratioP1;P1;durP2;ratioP2;P2;SDS_P1;SDS_P2;PMS_P1;PMS_P2;Temp;Humidity;BMP_temperature;BMP_pressure;BME280_temperature;BME280_humidity;BME280_pressure;Samples;Min_cycle;Max_cycle;Signal;HPM_P1;HPM_P2
2023/04/11 00:01:33;;;;;;;3.95;0.90;;;8.30;99.90;;;;;;5000693;28;20100;-77
2023/04/11 00:04:00;;;;;;;2.40;0.73;;;8.30;99.90;;;;;;4998881;28;20057;-77
2023/04/11 00:06:27;;;;;;;2.92;1.20;;;8.30;99.90;;;;;;4999989;28;20045;-77
2023/04/11 00:08:55;;;;;;;1.85;0.70;;;8.30;99.90;;;;;;5004071;28;20555;-77
2023/04/11 00:11:22;;;;;;;1.88;0.60;;;8.30;99.90;;;;;;4984351;28;20065;-78
2023/04/11 00:13:49;;;;;;;3.10;0.90;;;8.20;99.90;;;;;;4984323;28;20086;-78
2023/04/11 00:16:18;;;;;;;3.47;0.95;;;8.20;99.90;;;;;;5002662;28;20432;-77
2023/04/11 00:18:46;;;;;;;1.13;0.50;;;8.20;99.90;;;;;;4988452;28;20065;-78
2023/04/11 00:21:12;;;;;;;2.83;0.55;;;8.20;99.90;;;;;;5002635;28;20054;-77
2023/04/11 00:23:40;;;;;;;4.00;1.10;;;8.20;99.90;;;;;;5001748;28;20057;-77
2023/04/11 00:26:07;;;;;;;2.70;0.80;;;8.10;99.90;;;;;;5000187;28;20077;-77
2023/04/11 00:28:34;;;;;;;5.13;1.10;;;8.10;99.90;;;;;;4984064;28;20133;-77
2023/04/11 00:31:01;;;;;;;3.05;0.80;;;8.10;99.90;;;;;;4987202;28;20095;-77
2023/04/11 00:33:30;;;;;;;1.92;0.68;;;8.10;99.90;;;;;;5003732;28;20085;-77
2023/04/11 00:35:57;;;;;;;4.43;1.23;;;8.00;99.90;;;;;;5004221;28;20568;-77
2023/04/11 00:38:24;;;;;;;3.75;1.10;;;8.10;99.90;;;;;;4985964;28;20108;-77
2023/04/11 00:40:50;;;;;;;2.50;0.80;;;8.10;99.90;;;;;;5003934;28;20576;-76
2023/04/11 00:43:17;;;;;;;1.88;0.70;;;8.10;99.90;;;;;;4986544;28;20081;-76
2023/04/11 00:45:44;;;;;;;2.22;0.82;;;8.10;99.90;;;;;;4986701;28;20085;-77
2023/04/11 00:48:11;;;;;;;3.67;1.42;;;8.10;99.90;;;;;;5003249;28;20096;-77
2023/04/11 00:50:39;;;;;;;4.43;1.25;;;8.10;99.90;;;;;;5004027;28;20050;-77
2023/04/11 00:53:07;;;;;;;2.45;0.85;;;8.10;99.90;;;;;;5002096;28;20050;-76
2023/04/11 00:55:34;;;;;;;3.53;1.00;;;8.10;99.90;;;;;;4999588;28;20046;-77
2023/04/11 00:58:01;;;;;;;4.28;1.20;;;8.10;99.90;;;;;;4983647;28;20058;-77
2023/04/11 01:00:28;;;;;;;2.75;0.90;;;8.10;99.90;;;;;;5000117;28;20519;-78
2023/04/11 01:02:55;;;;;;;3.85;0.98;;;8.10;99.90;;;;;;4984872;28;20050;-77
2023/04/11 01:05:22;;;;;;;1.90;0.93;;;8.00;99.90;;;;;;4980205;28;20054;-77
2023/04/11 01:07:49;;;;;;;3.33;1.08;;;8.00;99.90;;;;;;4981598;28;20383;-77
2023/04/11 01:10:16;;;;;;;1.83;0.80;;;8.10;99.90;;;;;;4967669;28;20133;-77
2023/04/11 01:12:45;;;;;;;3.03;2.05;;;8.00;99.90;;;;;;4988730;28;20120;-77
2023/04/11 01:15:12;;;;;;;1.92;0.75;;;8.00;99.90;;;;;;4996091;28;20050;-77
2023/04/11 01:17:40;;;;;;;4.50;1.70;;;8.00;99.90;;;;;;5002957;28;20639;-77
2023/04/11 01:20:08;;;;;;;3.40;1.10;;;8.00;99.90;;;;;;5003046;28;20066;-77
2023/04/11 01:22:36;;;;;;;4.63;1.25;;;8.00;99.90;;;;;;4985725;28;20053;-77
2023/04/11 01:25:03;;;;;;;3.85;1.05;;;8.00;99.90;;;;;;4998904;28;20077;-77
2023/04/11 01:27:32;;;;;;;6.57;1.70;;;8.00;99.90;;;;;;4982929;28;20087;-77
2023/04/11 01:30:00;;;;;;;3.20;1.25;;;8.00;99.90;;;;;;4967759;28;20455;-76
2023/04/11 01:32:27;;;;;;;2.95;1.30;;;8.00;99.90;;;;;;5000580;28;20050;-76
2023/04/11 01:34:55;;;;;;;3.22;1.30;;;8.00;99.90;;;;;;4973968;28;20800;-77
2023/04/11 01:37:22;;;;;;;1.83;1.05;;;8.00;99.90;;;;;;4976618;28;20061;-76
2023/04/11 01:39:49;;;;;;;5.68;0.93;;;7.90;99.90;;;;;;4968886;28;20050;-76
2023/04/11 01:42:16;;;;;;;3.08;0.85;;;8.00;99.90;;;;;;4987919;28;20129;-76
2023/04/11 01:44:43;;;;;;;2.75;1.00;;;7.90;99.90;;;;;;4985613;28;20168;-76
2023/04/11 01:47:10;;;;;;;3.85;1.08;;;7.90;99.90;;;;;;4989976;28;20050;-77
2023/04/11 01:49:37;;;;;;;2.40;1.02;;;7.90;99.90;;;;;;4969650;28;20225;-76
2023/04/11 01:52:03;;;;;;;3.78;0.80;;;7.90;99.90;;;;;;4995830;28;20112;-76
2023/04/11 01:54:30;;;;;;;2.00;1.08;;;7.90;99.90;;;;;;5003285;28;20053;-76
2023/04/11 01:56:57;;;;;;;2.88;1.05;;;7.90;99.90;;;;;;5005743;28;20132;-76
2023/04/11 01:59:24;;;;;;;3.50;1.10;;;7.90;99.90;;;;;;5017167;28;20077;-77
2023/04/11 02:01:51;;;;;;;1.92;1.13;;;7.90;99.90;;;;;;4995032;28;20485;-77
2023/04/11 02:04:18;;;;;;;2.72;0.98;;;7.90;99.90;;;;;;5004152;28;20049;-77
2023/04/11 02:06:45;;;;;;;3.30;0.90;;;7.90;99.90;;;;;;4977347;28;20057;-76
2023/04/11 02:09:12;;;;;;;4.00;1.30;;;7.90;99.90;;;;;;4999718;28;20447;-77
2023/04/11 02:11:39;;;;;;;3.15;0.98;;;7.90;99.90;;;;;;4988568;28;20454;-77
2023/04/11 02:14:08;;;;;;;3.95;1.00;;;7.90;99.90;;;;;;4984585;28;20100;-77
2023/04/11 02:16:49;;;;;;;3.05;0.85;;;7.90;99.90;;;;;;4968824;28;20078;-77
2023/04/11 02:19:19;;;;;;;2.35;1.20;;;7.90;99.90;;;;;;4985690;28;20108;-77
2023/04/11 02:21:47;;;;;;;2.88;0.90;;;7.90;99.90;;;;;;4998267;28;20050;-77
2023/04/11 02:24:14;;;;;;;3.75;0.93;;;7.80;99.90;;;;;;4997468;28;20088;-77
2023/04/11 02:26:41;;;;;;;3.10;0.98;;;7.80;99.90;;;;;;4968851;28;20137;-78
2023/04/11 02:29:08;;;;;;;2.53;0.90;;;7.80;99.90;;;;;;4984365;28;20091;-76
2023/04/11 02:31:35;;;;;;;3.10;1.10;;;7.80;99.90;;;;;;4968055;28;20089;-77
2023/04/11 02:34:02;;;;;;;2.97;1.02;;;7.80;99.90;;;;;;4999496;28;20141;-77
2023/04/11 02:36:29;;;;;;;2.42;1.20;;;7.80;99.90;;;;;;5004100;28;20137;-77
2023/04/11 02:38:55;;;;;;;3.55;0.80;;;7.80;99.90;;;;;;4984882;28;20054;-77
2023/04/11 02:41:22;;;;;;;2.60;0.98;;;7.80;99.90;;;;;;4984290;28;20050;-77
2023/04/11 02:43:49;;;;;;;4.05;1.15;;;7.80;99.90;;;;;;5000885;28;20075;-77
2023/04/11 02:46:16;;;;;;;1.90;0.77;;;7.80;99.90;;;;;;4991522;28;20224;-77
2023/04/11 02:48:43;;;;;;;3.03;1.10;;;7.80;99.90;;;;;;5007853;28;20057;-77
2023/04/11 02:51:10;;;;;;;1.80;0.98;;;7.80;99.90;;;;;;5008027;28;20068;-76
2023/04/11 02:53:37;;;;;;;4.55;1.30;;;7.80;99.90;;;;;;4986491;28;20054;-76
2023/04/11 02:56:06;;;;;;;3.97;1.48;;;7.80;99.90;;;;;;5007372;28;20084;-77
2023/04/11 02:58:37;;;;;;;2.67;1.00;;;7.70;99.90;;;;;;4991459;28;20386;-77
2023/04/11 03:01:07;;;;;;;2.53;0.80;;;7.70;99.90;;;;;;5007054;28;20054;-77
2023/04/11 03:03:33;;;;;;;3.47;0.98;;;7.70;99.90;;;;;;4990922;28;20086;-77
2023/04/11 03:06:00;;;;;;;2.22;1.20;;;7.70;99.90;;;;;;5004063;28;20085;-77
2023/04/11 03:08:27;;;;;;;5.38;1.27;;;7.70;99.90;;;;;;4986767;28;20089;-77
2023/04/11 03:10:54;;;;;;;2.10;0.90;;;7.70;99.90;;;;;;4991110;28;20120;-77
2023/04/11 03:13:21;;;;;;;3.15;1.02;;;7.60;99.90;;;;;;4990578;28;20050;-79
2023/04/11 03:15:48;;;;;;;3.63;1.23;;;7.60;99.90;;;;;;5008454;28;20057;-77
2023/04/11 03:18:15;;;;;;;2.80;1.30;;;7.60;99.90;;;;;;4987539;28;20092;-77
2023/04/11 03:20:42;;;;;;;3.35;1.67;;;7.60;99.90;;;;;;4986682;28;20662;-76
2023/04/11 03:23:09;;;;;;;4.65;1.25;;;7.60;99.90;;;;;;4995906;28;20050;-76
2023/04/11 03:25:36;;;;;;;3.30;1.75;;;7.60;99.90;;;;;;5005941;28;20064;-77
2023/04/11 03:28:03;;;;;;;2.92;0.98;;;7.60;99.90;;;;;;5006265;28;20049;-77
2023/04/11 03:30:31;;;;;;;2.47;0.93;;;7.60;99.90;;;;;;5006277;28;20104;-77
2023/04/11 03:32:59;;;;;;;4.53;1.27;;;7.50;99.90;;;;;;5002860;28;20077;-77
2023/04/11 03:35:27;;;;;;;2.42;1.10;;;7.50;99.90;;;;;;4970715;28;20069;-77
2023/04/11 03:37:53;;;;;;;3.78;1.42;;;7.50;99.90;;;;;;4989838;28;20046;-77
2023/04/11 03:40:20;;;;;;;1.85;0.80;;;7.50;99.90;;;;;;4987585;28;20571;-77
2023/04/11 03:42:48;;;;;;;1.60;0.75;;;7.50;99.90;;;;;;5010834;28;20050;-77
2023/04/11 03:45:15;;;;;;;4.47;0.90;;;7.50;99.90;;;;;;4986154;28;20108;-76
2023/04/11 03:47:41;;;;;;;3.58;1.10;;;7.50;99.90;;;;;;5006843;28;20046;-77
2023/04/11 03:50:09;;;;;;;4.97;1.35;;;7.50;99.90;;;;;;5005746;28;20076;-76
2023/04/11 03:52:36;;;;;;;3.65;0.82;;;7.50;99.90;;;;;;4989030;28;20050;-76
2023/04/11 03:55:03;;;;;;;3.35;0.90;;;7.40;99.90;;;;;;4984767;28;20462;-77
2023/04/11 03:57:29;;;;;;;3.45;1.33;;;7.40;99.90;;;;;;5001578;28;20130;-76
2023/04/11 03:59:56;;;;;;;4.68;1.55;;;7.40;99.90;;;;;;4986824;28;20111;-76
2023/04/11 04:02:23;;;;;;;4.63;1.05;;;7.40;99.90;;;;;;5001573;28;20042;-77
2023/04/11 04:04:57;;;;;;;1.95;0.70;;;7.40;99.90;;;;;;5004054;28;20057;-76
2023/04/11 04:07:25;;;;;;;2.60;0.90;;;7.40;99.90;;;;;;4986426;28;20074;-77
2023/04/11 04:09:51;;;;;;;1.38;0.70;;;7.30;99.90;;;;;;4953885;28;20521;-77
2023/04/11 04:12:19;;;;;;;2.33;1.17;;;7.30;99.90;;;;;;4975009;28;20051;-76
2023/04/11 04:14:46;;;;;;;1.48;0.65;;;7.30;99.90;;;;;;5001942;28;20056;-77
2023/04/11 04:17:14;;;;;;;1.75;0.68;;;7.30;99.90;;;;;;4999058;28;20047;-77
2023/04/11 04:19:41;;;;;;;1.05;0.60;;;7.30;99.90;;;;;;4970281;28;20066;-77
2023/04/11 04:22:10;;;;;;;1.83;0.50;;;7.20;99.90;;;;;;4981981;28;20125;-76
2023/04/11 04:24:38;;;;;;;1.10;0.63;;;7.20;99.90;;;;;;4999687;28;20498;-77
2023/04/11 04:27:08;;;;;;;0.28;0.20;;;7.20;99.90;;;;;;5000448;28;20111;-77
2023/04/11 04:29:45;;;;;;;1.27;0.55;;;7.10;99.90;;;;;;4986302;28;20165;-76
2023/04/11 04:32:22;;;;;;;0.77;0.40;;;7.10;99.90;;;;;;4984870;28;20046;-76
2023/04/11 04:34:53;;;;;;;0.90;0.45;;;7.00;99.90;;;;;;4989357;28;20477;-76
2023/04/11 04:37:22;;;;;;;0.82;0.40;;;7.00;99.90;;;;;;4994256;28;20753;-76
2023/04/11 04:39:53;;;;;;;1.27;0.70;;;7.00;99.90;;;;;;5002739;28;20481;-76
2023/04/11 04:42:24;;;;;;;1.98;0.38;;;6.90;99.90;;;;;;4975154;28;20750;-77
2023/04/11 04:44:51;;;;;;;1.73;0.60;;;6.90;99.90;;;;;;4985970;28;20533;-77
2023/04/11 04:47:20;;;;;;;0.68;0.30;;;6.90;99.90;;;;;;4973737;28;20078;-76
2023/04/11 04:49:47;;;;;;;0.93;0.35;;;6.80;99.90;;;;;;4977200;28;20236;-77
2023/04/11 04:52:14;;;;;;;0.77;0.30;;;6.80;99.90;;;;;;4978233;28;20474;-77
2023/04/11 04:54:41;;;;;;;0.32;0.32;;;6.80;99.90;;;;;;4992667;28;20614;-77
2023/04/11 04:57:09;;;;;;;0.20;0.20;;;6.70;99.90;;;;;;4998547;28;20049;-77
2023/04/11 04:59:36;;;;;;;0.45;0.20;;;6.70;99.90;;;;;;4991567;28;20084;-77
2023/04/11 05:02:03;;;;;;;0.98;0.40;;;6.70;99.90;;;;;;4976166;28;20050;-77
2023/04/11 05:04:32;;;;;;;0.20;0.20;;;6.70;99.90;;;;;;4989956;28;20619;-77
2023/04/11 05:07:00;;;;;;;1.35;0.40;;;6.70;99.90;;;;;;4989679;28;20677;-79
2023/04/11 05:09:27;;;;;;;1.73;0.50;;;6.60;99.90;;;;;;4989971;28;20046;-78
2023/04/11 05:11:55;;;;;;;0.28;0.25;;;6.60;99.90;;;;;;4980775;28;20123;-77
2023/04/11 05:14:22;;;;;;;0.32;0.25;;;6.50;99.90;;;;;;4985392;28;20405;-77
2023/04/11 05:16:50;;;;;;;1.13;0.55;;;6.50;99.90;;;;;;4995562;28;20121;-77
2023/04/11 05:19:17;;;;;;;0.50;0.40;;;6.50;99.90;;;;;;4975238;28;20046;-76
2023/04/11 05:21:44;;;;;;;0.30;0.22;;;6.50;99.90;;;;;;4979700;28;20174;-77
2023/04/11 05:24:11;;;;;;;1.52;0.80;;;6.50;99.90;;;;;;5002656;28;20046;-78
2023/04/11 05:26:38;;;;;;;1.15;1.02;;;6.50;99.90;;;;;;4978167;28;20203;-77
2023/04/11 05:29:05;;;;;;;1.45;0.40;;;6.50;99.90;;;;;;4985151;28;20794;-77
2023/04/11 05:31:32;;;;;;;1.15;0.77;;;6.50;99.90;;;;;;4976659;28;20124;-77
2023/04/11 05:33:59;;;;;;;1.10;0.70;;;6.50;99.90;;;;;;4975151;28;20109;-78
2023/04/11 05:36:27;;;;;;;1.80;0.50;;;6.50;99.90;;;;;;4994907;28;20057;-78
2023/04/11 05:38:54;;;;;;;4.03;0.70;;;6.50;99.90;;;;;;4987485;28;20149;-77
2023/04/11 05:41:21;;;;;;;2.03;0.50;;;6.60;99.90;;;;;;4988114;28;20752;-78
2023/04/11 05:43:48;;;;;;;2.47;0.70;;;6.60;99.90;;;;;;4987382;28;20058;-77
2023/04/11 05:46:15;;;;;;;1.33;0.50;;;6.70;99.90;;;;;;4989528;28;20100;-78
2023/04/11 05:48:41;;;;;;;2.92;0.70;;;6.70;99.90;;;;;;4991151;28;20439;-78
2023/04/11 05:51:08;;;;;;;2.80;0.77;;;6.80;99.90;;;;;;4969166;28;20104;-78
2023/04/11 05:53:35;;;;;;;2.58;0.80;;;6.90;99.90;;;;;;4954467;28;20049;-78
2023/04/11 05:56:02;;;;;;;2.67;0.80;;;7.00;99.90;;;;;;4963479;28;20111;-79
2023/04/11 05:58:29;;;;;;;2.90;0.93;;;7.00;99.90;;;;;;4957462;28;20112;-79
2023/04/11 06:00:58;;;;;;;2.25;1.00;;;7.00;99.90;;;;;;4973327;28;20137;-79
2023/04/11 06:03:26;;;;;;;3.03;1.60;;;7.10;99.90;;;;;;4979915;28;20088;-78
2023/04/11 06:05:53;;;;;;;3.20;1.38;;;7.10;99.90;;;;;;4974134;28;20420;-78
2023/04/11 06:08:20;;;;;;;2.50;0.80;;;7.20;99.90;;;;;;4978696;28;20109;-78
2023/04/11 06:10:47;;;;;;;3.17;1.08;;;7.20;99.90;;;;;;4968072;28;20616;-79
2023/04/11 06:13:14;;;;;;;2.67;1.02;;;7.30;99.90;;;;;;4985735;28;20157;-79
2023/04/11 06:15:41;;;;;;;3.63;1.00;;;7.30;99.90;;;;;;4965783;28;20128;-77
2023/04/11 06:18:08;;;;;;;6.65;1.65;;;7.30;99.90;;;;;;4965742;28;20510;-78
2023/04/11 06:20:35;;;;;;;3.10;1.10;;;7.40;99.90;;;;;;4962734;28;20050;-78
2023/04/11 06:23:02;;;;;;;1.88;0.80;;;7.50;99.90;;;;;;4995230;28;20046;-79
2023/04/11 06:25:29;;;;;;;4.88;0.85;;;7.50;99.90;;;;;;4964062;28;20058;-79
2023/04/11 06:27:56;;;;;;;3.95;0.68;;;7.60;99.90;;;;;;4976194;28;20045;-79
2023/04/11 06:30:23;;;;;;;2.72;0.80;;;7.60;99.90;;;;;;4998511;28;20079;-79
2023/04/11 06:32:50;;;;;;;4.55;1.30;;;7.60;99.90;;;;;;4983669;28;20816;-79
2023/04/11 06:35:19;;;;;;;1.80;0.80;;;7.60;99.90;;;;;;4988678;28;20538;-80
2023/04/11 06:37:46;;;;;;;3.33;0.90;;;7.70;99.90;;;;;;4965856;28;20685;-79
2023/04/11 06:40:13;;;;;;;2.58;0.90;;;7.80;99.90;;;;;;4978624;28;20095;-77
2023/04/11 06:42:41;;;;;;;4.32;0.90;;;7.80;99.90;;;;;;5000172;28;20124;-77
2023/04/11 06:45:08;;;;;;;2.05;0.70;;;7.90;99.90;;;;;;4999024;28;20076;-77
2023/04/11 06:47:35;;;;;;;2.35;0.93;;;7.90;99.90;;;;;;4999233;28;20050;-78
2023/04/11 06:50:03;;;;;;;2.00;0.70;;;8.00;99.90;;;;;;4982632;28;20625;-79
2023/04/11 06:52:30;;;;;;;1.75;0.88;;;8.00;99.90;;;;;;4981848;28;20046;-79
2023/04/11 06:54:57;;;;;;;3.42;0.80;;;8.10;99.90;;;;;;4997842;28;20139;-78
2023/04/11 06:57:24;;;;;;;3.35;1.02;;;8.20;99.90;;;;;;4982875;28;20046;-79
2023/04/11 06:59:51;;;;;;;3.47;1.05;;;8.20;99.90;;;;;;4998502;28;20060;-79
2023/04/11 07:02:18;;;;;;;2.95;0.85;;;8.30;99.90;;;;;;4998782;28;20133;-77
2023/04/11 07:04:46;;;;;;;2.60;1.35;;;8.40;99.90;;;;;;4998144;28;20164;-78
2023/04/11 07:07:14;;;;;;;3.35;0.93;;;8.40;99.90;;;;;;4999690;28;20061;-79
2023/04/11 07:09:42;;;;;;;2.30;0.80;;;8.50;99.90;;;;;;4981488;28;20058;-78
2023/04/11 07:12:09;;;;;;;1.23;0.68;;;8.60;99.90;;;;;;4982471;28;20049;-78
2023/04/11 07:14:36;;;;;;;3.13;0.90;;;8.60;99.90;;;;;;4997878;28;20061;-78
2023/04/11 07:17:03;;;;;;;3.50;1.10;;;8.70;99.90;;;;;;4998029;28;20116;-79
2023/04/11 07:19:30;;;;;;;2.20;0.70;;;8.80;99.90;;;;;;4981385;28;20058;-79
2023/04/11 07:21:57;;;;;;;2.75;0.80;;;8.80;99.90;;;;;;4982192;28;20434;-79
2023/04/11 07:24:24;;;;;;;1.20;0.75;;;8.90;99.90;;;;;;4980909;28;20064;-79
2023/04/11 07:26:53;;;;;;;4.30;0.80;;;9.00;99.90;;;;;;4982484;28;20061;-78
2023/04/11 07:29:20;;;;;;;1.95;1.00;;;9.00;99.90;;;;;;4996783;28;20058;-78
2023/04/11 07:31:48;;;;;;;2.50;0.73;;;9.10;99.90;;;;;;4997808;28;20066;-78
2023/04/11 07:34:15;;;;;;;3.35;1.13;;;9.10;99.90;;;;;;4993973;28;20046;-79
2023/04/11 07:36:42;;;;;;;2.70;0.93;;;9.20;99.90;;;;;;4994532;28;20038;-79
2023/04/11 07:39:11;;;;;;;3.42;1.00;;;9.20;99.90;;;;;;4980263;28;20054;-79
2023/04/11 07:41:40;;;;;;;1.63;0.80;;;9.30;99.90;;;;;;4978349;28;20184;-79
2023/04/11 07:44:08;;;;;;;2.47;1.38;;;9.30;99.90;;;;;;4995804;28;20069;-79
2023/04/11 07:46:35;;;;;;;2.90;0.90;;;9.40;99.90;;;;;;4982097;28;20129;-79
2023/04/11 07:49:01;;;;;;;3.10;1.15;;;9.40;99.90;;;;;;4980893;28;20140;-79
2023/04/11 07:51:28;;;;;;;3.08;1.02;;;9.50;99.90;;;;;;4981450;28;20042;-79
2023/04/11 07:53:56;;;;;;;3.08;0.70;;;9.50;99.90;;;;;;4980111;28;20079;-79
2023/04/11 07:56:23;;;;;;;2.50;0.95;;;9.50;99.90;;;;;;4998394;28;20152;-78
2023/04/11 07:58:50;;;;;;;4.25;1.45;;;9.60;99.90;;;;;;4997039;28;20058;-78
2023/04/11 08:01:23;;;;;;;3.78;0.80;;;9.60;99.90;;;;;;4997905;28;20120;-77
2023/04/11 08:03:53;;;;;;;2.65;1.00;;;9.70;99.90;;;;;;4997112;28;20054;-77
2023/04/11 08:06:21;;;;;;;2.33;0.77;;;9.70;99.90;;;;;;4997684;28;20054;-78
2023/04/11 08:08:49;;;;;;;2.63;1.02;;;9.70;99.90;;;;;;4996644;28;20057;-78
2023/04/11 08:11:16;;;;;;;1.58;0.70;;;9.70;99.90;;;;;;4981925;28;20061;-78
2023/04/11 08:13:44;;;;;;;2.95;1.13;;;9.80;99.90;;;;;;4977418;28;20657;-78
2023/04/11 08:16:11;;;;;;;1.25;0.63;;;9.80;99.90;;;;;;4978164;28;20133;-78
2023/04/11 08:18:40;;;;;;;2.65;0.93;;;9.90;99.90;;;;;;4962688;28;20054;-77
2023/04/11 08:21:11;;;;;;;3.13;0.80;;;10.00;99.90;;;;;;4997262;28;20058;-78
2023/04/11 08:23:41;;;;;;;2.85;0.77;;;10.00;99.90;;;;;;4979424;28;20054;-77
2023/04/11 08:26:09;;;;;;;3.13;1.23;;;10.00;99.90;;;;;;4981505;28;20085;-78
2023/04/11 08:28:36;;;;;;;2.25;0.90;;;10.10;99.90;;;;;;4980451;28;20563;-80
2023/04/11 08:31:04;;;;;;;2.42;1.00;;;10.10;99.90;;;;;;4980096;28;20060;-77
2023/04/11 08:33:31;;;;;;;3.95;1.13;;;10.10;99.90;;;;;;4995506;28;20042;-77
2023/04/11 08:35:58;;;;;;;1.50;0.70;;;10.20;99.90;;;;;;4977708;28;20085;-78
2023/04/11 08:38:25;;;;;;;2.05;0.80;;;10.30;99.90;;;;;;4992901;28;20491;-77
2023/04/11 08:40:51;;;;;;;2.22;1.10;;;10.40;99.90;;;;;;5012746;28;20507;-78
2023/04/11 08:43:18;;;;;;;3.90;1.48;;;10.50;99.90;;;;;;4996038;28;20137;-80
2023/04/11 08:45:45;;;;;;;3.28;1.00;;;10.60;99.90;;;;;;4996441;28;20096;-79
2023/04/11 08:48:12;;;;;;;2.85;1.23;;;10.70;99.90;;;;;;4980831;28;20046;-78
2023/04/11 08:50:41;;;;;;;4.57;1.08;;;10.70;99.90;;;;;;4969985;28;20109;-79
2023/04/11 08:53:08;;;;;;;2.85;0.90;;;10.70;99.90;;;;;;4983268;28;20133;-78
2023/04/11 08:55:42;;;;;;;2.92;1.13;;;10.70;99.90;;;;;;4969875;28;20228;-78
2023/04/11 08:58:09;;;;;;;2.28;0.80;;;10.80;99.90;;;;;;4985017;28;20085;-76
2023/04/11 09:00:36;;;;;;;2.25;1.25;;;10.80;99.90;;;;;;4991382;28;20053;-76
2023/04/11 09:03:07;;;;;;;1.83;0.80;;;10.90;99.90;;;;;;4975631;28;20053;-79
2023/04/11 09:05:36;;;;;;;2.13;1.00;;;11.00;99.90;;;;;;4970033;28;20163;-79
2023/04/11 09:08:07;;;;;;;2.58;0.85;;;11.00;99.90;;;;;;4993993;28;20068;-79
2023/04/11 09:10:38;;;;;;;5.68;1.17;;;11.10;99.90;;;;;;4999309;28;20124;-79
2023/04/11 09:13:24;;;;;;;3.10;1.30;;;11.20;99.90;;;;;;4988015;28;20418;-80
2023/04/11 09:16:04;;;;;;;2.10;0.77;;;11.20;99.90;;;;;;4993807;28;20058;-79
2023/04/11 09:18:32;;;;;;;3.05;0.90;;;11.40;99.90;;;;;;4962767;28;20173;-79
2023/04/11 09:21:00;;;;;;;1.63;0.70;;;11.70;99.90;;;;;;4982690;28;20648;-79
2023/04/11 09:23:27;;;;;;;4.10;1.48;;;11.90;99.90;;;;;;4994544;28;20056;-79
2023/04/11 09:25:55;;;;;;;3.72;0.98;;;12.10;99.90;;;;;;4979208;28;20081;-80
2023/04/11 09:28:25;;;;;;;2.15;0.85;;;12.10;99.90;;;;;;4963272;28;20050;-79
2023/04/11 09:30:55;;;;;;;1.58;0.60;;;12.10;99.90;;;;;;4994227;28;20054;-79
2023/04/11 09:33:23;;;;;;;2.35;0.90;;;12.30;99.90;;;;;;4987476;28;20077;-79
2023/04/11 09:35:54;;;;;;;2.92;1.30;;;12.40;99.90;;;;;;4963553;28;20058;-79
2023/04/11 09:38:29;;;;;;;2.33;0.88;;;12.50;99.90;;;;;;4978846;28;20065;-79
2023/04/11 09:40:56;;;;;;;2.90;0.80;;;12.70;99.90;;;;;;4994944;28;20506;-79
2023/04/11 09:43:24;;;;;;;3.20;1.00;;;12.70;99.90;;;;;;4990038;28;20107;-78
2023/04/11 09:46:10;;;;;;;2.92;1.83;;;12.70;99.90;;;;;;4985462;28;20128;-79
2023/04/11 09:48:37;;;;;;;4.15;1.58;;;12.70;99.90;;;;;;4985032;28;20152;-78
2023/04/11 09:51:12;;;;;;;3.92;1.05;;;12.90;99.90;;;;;;5002079;28;20104;-79
2023/04/11 09:53:54;;;;;;;1.67;0.80;;;13.00;99.90;;;;;;4980314;28;20050;-79
2023/04/11 09:56:22;;;;;;;2.67;1.17;;;13.00;99.90;;;;;;4966606;28;20562;-79
2023/04/11 09:58:50;;;;;;;2.97;0.95;;;13.00;99.90;;;;;;4967367;28;20450;-78
2023/04/11 10:01:18;;;;;;;2.25;0.90;;;13.00;99.90;;;;;;5001868;28;20140;-79
2023/04/11 10:03:49;;;;;;;2.50;1.10;;;13.10;99.90;;;;;;4985109;28;20566;-79
2023/04/11 10:06:30;;;;;;;2.42;0.85;;;13.20;99.90;;;;;;5001827;28;20165;-79
2023/04/11 10:09:08;;;;;;;2.95;1.00;;;13.20;99.90;;;;;;5000054;28;20121;-79
2023/04/11 10:11:35;;;;;;;1.52;0.70;;;13.20;99.90;;;;;;4999259;28;20049;-79
2023/04/11 10:14:02;;;;;;;1.58;0.70;;;13.40;99.90;;;;;;4978558;28;20124;-80
2023/04/11 10:16:32;;;;;;;2.50;1.20;;;13.60;99.90;;;;;;4980918;28;20095;-79
2023/04/11 10:19:05;;;;;;;1.55;0.60;;;13.60;99.20;;;;;;4968462;28;20454;-79
2023/04/11 10:21:32;;;;;;;1.25;0.70;;;13.70;99.40;;;;;;5003301;28;20730;-79
2023/04/11 10:24:20;;;;;;;3.08;0.95;;;13.70;99.50;;;;;;4999614;28;20145;-79
2023/04/11 10:26:47;;;;;;;2.13;0.98;;;13.70;99.00;;;;;;4998503;28;20045;-79
2023/04/11 10:29:32;;;;;;;2.63;1.00;;;13.60;99.30;;;;;;4996328;28;20117;-79
2023/04/11 10:32:14;;;;;;;2.58;0.95;;;13.60;98.80;;;;;;4983011;28;20089;-79
2023/04/11 10:34:53;;;;;;;1.40;0.80;;;13.50;99.90;;;;;;4989348;28;20050;-79
2023/04/11 10:37:29;;;;;;;2.85;0.70;;;13.40;98.70;;;;;;4979665;28;20054;-80
2023/04/11 10:39:59;;;;;;;1.52;0.70;;;13.30;98.90;;;;;;4991547;28;20549;-79
2023/04/11 10:42:37;;;;;;;1.63;0.70;;;13.30;99.30;;;;;;5003124;28;20076;-79
2023/04/11 10:45:48;;;;;;;1.35;0.70;;;13.20;98.60;;;;;;5002759;28;20054;-79
2023/04/11 10:48:15;;;;;;;3.65;1.42;;;13.00;99.10;;;;;;5001615;28;20057;-81
2023/04/11 10:50:45;;;;;;;2.17;1.00;;;12.90;98.70;;;;;;4981874;28;20133;-80
2023/04/11 10:53:35;;;;;;;2.35;1.00;;;13.00;98.90;;;;;;4973249;28;20676;-81
2023/04/11 10:56:03;;;;;;;1.08;0.50;;;13.10;98.10;;;;;;5007931;28;20128;-81
2023/04/11 10:58:36;;;;;;;2.15;1.00;;;13.30;98.40;;;;;;4985291;28;20061;-81
2023/04/11 11:01:13;;;;;;;1.38;0.65;;;13.50;98.50;;;;;;4997704;28;20062;-79
2023/04/11 11:03:58;;;;;;;2.80;0.77;;;13.70;98.80;;;;;;4998412;28;20054;-81
2023/04/11 11:06:25;;;;;;;1.33;0.60;;;13.90;98.40;;;;;;5004940;28;20710;-82
2023/04/11 11:08:53;;;;;;;1.95;0.80;;;13.80;98.00;;;;;;4987234;28;20417;-79
2023/04/11 11:11:21;;;;;;;2.67;0.80;;;13.80;98.20;;;;;;4989742;28;20495;-79
2023/04/11 11:13:52;;;;;;;2.00;0.70;;;13.90;98.40;;;;;;5004195;28;20132;-80
2023/04/11 11:16:42;;;;;;;1.02;0.60;;;14.10;99.10;;;;;;5005322;28;20007;-80
2023/04/11 11:19:10;;;;;;;1.08;0.50;;;14.40;99.10;;;;;;4988022;28;20625;-80
2023/04/11 11:21:37;;;;;;;1.15;0.60;;;14.40;97.90;;;;;;4988335;28;20111;-80
2023/04/11 11:24:04;;;;;;;1.98;0.60;;;14.30;98.30;;;;;;4984545;28;20165;-81
2023/04/11 11:26:49;;;;;;;1.52;0.65;;;14.20;97.90;;;;;;5001551;28;20050;-80
2023/04/11 11:29:16;;;;;;;1.55;0.50;;;14.10;97.90;;;;;;4986196;28;20126;-80
2023/04/11 11:31:46;;;;;;;1.77;0.70;;;14.10;98.30;;;;;;5003817;28;20050;-81
2023/04/11 11:34:14;;;;;;;1.60;0.88;;;14.30;98.40;;;;;;5003258;28;22543;-80
2023/04/11 11:36:45;;;;;;;1.88;0.80;;;14.40;98.10;;;;;;4988259;28;20144;-80
2023/04/11 11:39:13;;;;;;;2.15;0.73;;;14.70;98.90;;;;;;5000498;28;20112;-80
2023/04/11 11:41:40;;;;;;;1.95;0.63;;;14.90;98.60;;;;;;4985282;28;20081;-80
2023/04/11 11:44:07;;;;;;;2.55;0.50;;;14.90;98.10;;;;;;4985664;28;20501;-80
2023/04/11 11:46:34;;;;;;;1.45;0.68;;;14.80;98.70;;;;;;4987438;28;20560;-79
2023/04/11 11:49:07;;;;;;;1.90;0.70;;;14.70;98.50;;;;;;5003716;28;20104;-80
2023/04/11 11:51:45;;;;;;;2.08;0.77;;;14.60;98.40;;;;;;5003834;28;20077;-79
2023/04/11 11:54:12;;;;;;;2.47;0.95;;;14.60;98.50;;;;;;4999456;28;20107;-79
2023/04/11 11:56:39;;;;;;;2.05;0.80;;;14.50;98.80;;;;;;5001094;28;20064;-80
2023/04/11 11:59:07;;;;;;;2.00;0.80;;;14.60;99.10;;;;;;5001606;28;20223;-80
2023/04/11 12:01:34;;;;;;;1.20;0.60;;;14.70;99.10;;;;;;5003453;28;20386;-80
2023/04/11 12:04:03;;;;;;;1.00;0.43;;;14.90;99.20;;;;;;4983944;28;20081;-80
2023/04/11 12:06:31;;;;;;;1.23;0.47;;;15.00;99.10;;;;;;4984665;28;20055;-80
2023/04/11 12:09:16;;;;;;;0.65;0.50;;;15.10;98.40;;;;;;5001292;28;20441;-80
2023/04/11 12:11:44;;;;;;;3.30;0.90;;;15.10;99.40;;;;;;4987636;28;20046;-80
2023/04/11 12:14:21;;;;;;;1.73;0.50;;;15.00;98.50;;;;;;4983020;28;20105;-80
2023/04/11 12:16:48;;;;;;;2.65;0.90;;;15.20;99.40;;;;;;4967041;28;20574;-80
2023/04/11 12:19:15;;;;;;;2.88;1.10;;;15.30;99.50;;;;;;4969598;28;20169;-80
2023/04/11 12:21:41;;;;;;;3.58;0.98;;;15.40;98.90;;;;;;4986893;28;20477;-79
2023/04/11 12:24:09;;;;;;;2.05;0.98;;;15.70;99.90;;;;;;4983439;28;20057;-80
2023/04/11 12:26:36;;;;;;;2.03;0.90;;;15.70;99.10;;;;;;5000337;28;20061;-80
2023/04/11 12:29:14;;;;;;;2.15;0.85;;;15.60;99.70;;;;;;4985992;28;20064;-80
2023/04/11 12:31:41;;;;;;;2.17;0.80;;;15.40;99.90;;;;;;5002923;28;20054;-80
2023/04/11 12:34:11;;;;;;;2.33;0.70;;;15.20;99.90;;;;;;5001867;28;20119;-80
2023/04/11 12:36:38;;;;;;;2.28;0.90;;;14.90;99.90;;;;;;4986791;28;20478;-80
2023/04/11 12:39:06;;;;;;;3.55;1.13;;;14.70;99.90;;;;;;5001257;28;20041;-80
2023/04/11 12:41:32;;;;;;;2.42;1.20;;;14.30;99.90;;;;;;5003208;28;20107;-80
2023/04/11 12:44:01;;;;;;;3.40;1.40;;;14.20;99.90;;;;;;5000273;28;20129;-80
2023/04/11 12:46:28;;;;;;;2.15;0.93;;;14.40;99.90;;;;;;4983537;28;20085;-80
2023/04/11 12:48:55;;;;;;;2.72;1.30;;;14.60;99.90;;;;;;4984619;28;20246;-80
2023/04/11 12:51:22;;;;;;;3.15;1.00;;;14.80;99.90;;;;;;4986656;28;20397;-80
2023/04/11 12:53:51;;;;;;;3.28;1.02;;;14.90;99.90;;;;;;4984781;28;20093;-80
2023/04/11 12:56:18;;;;;;;3.45;1.27;;;15.00;99.90;;;;;;5002818;28;20753;-80
2023/04/11 12:58:45;;;;;;;3.00;1.20;;;15.10;99.90;;;;;;4986373;28;20049;-80
2023/04/11 13:01:12;;;;;;;4.30;1.13;;;15.10;99.90;;;;;;4986335;28;20510;-80